createdAt,value
2019-01-31T00:01:05.819Z,100804.88
2019-01-31T00:04:07.003Z,100813.52
2019-01-31T00:07:08.827Z,100810.44
2019-01-31T00:10:29.957Z,100812.58
2019-01-31T00:13:21.341Z,100814.25
2019-01-31T00:15:58.757Z,100823.20
2019-01-31T00:18:55.269Z,100811.84
2019-01-31T00:22:05.244Z,100817.37
2019-01-31T00:25:01.773Z,100817.34
2019-01-31T00:28:10.736Z,100823.40
2019-01-31T00:31:35.673Z,100821.27
2019-01-31T00:34:56.652Z,100813.50
2019-01-31T00:37:51.648Z,100813.85
2019-01-31T00:40:36.223Z,100822.38
2019-01-31T00:44:12.597Z,100816.69
2019-01-31T00:46:46.412Z,100828.38
2019-01-31T00:49:37.173Z,100827.13
2019-01-31T00:53:00.362Z,100829.22
2019-01-31T00:55:53.906Z,100825.68
2019-01-31T00:59:09.199Z,100821.62
2019-01-31T01:02:19.976Z,100821.52
2019-01-31T01:05:10.168Z,100823.44
2019-01-31T01:07:59.601Z,100826.87
2019-01-31T01:11:12.948Z,100829.13
2019-01-31T01:14:15.059Z,100829.66
2019-01-31T01:17:08.030Z,100825.24
2019-01-31T01:20:10.884Z,100830.84
2019-01-31T01:22:51.970Z,100825.61
2019-01-31T01:26:09.903Z,100827.75
2019-01-31T01:28:56.107Z,100826.87
2019-01-31T01:31:53.581Z,100834.17
2019-01-31T01:35:23.668Z,100824.20
2019-01-31T01:38:19.601Z,100820.66
2019-01-31T01:40:56.207Z,100821.80
2019-01-31T01:43:57.884Z,100829.41
2019-01-31T01:47:09.404Z,100828.87
2019-01-31T01:49:59.102Z,100828.89
2019-01-31T01:52:45.824Z,100827.20
2019-01-31T01:55:38.560Z,100825.06
2019-01-31T01:58:58.680Z,100825.94
2019-01-31T02:01:58.345Z,100825.58
2019-01-31T02:05:05.496Z,100829.48
2019-01-31T02:08:03.964Z,100822.14
2019-01-31T02:11:10.040Z,100829.48
2019-01-31T02:14:15.113Z,100830.84
2019-01-31T02:17:39.220Z,100842.06
2019-01-31T02:21:09.427Z,100836.02
2019-01-31T02:24:02.256Z,100841.98
2019-01-31T02:27:14.101Z,100839.92
2019-01-31T02:30:06.897Z,100838.62
2019-01-31T02:33:15.844Z,100849.27
2019-01-31T02:36:10.013Z,100850.95
2019-01-31T02:39:23.981Z,100846.14
2019-01-31T02:42:41.862Z,100850.36
2019-01-31T02:46:02.766Z,100851.21
2019-01-31T02:48:58.480Z,100849.22
2019-01-31T02:52:14.893Z,100840.16
2019-01-31T02:55:20.152Z,100837.91
2019-01-31T02:58:38.438Z,100839.31
2019-01-31T03:02:05.909Z,100838.62
2019-01-31T03:05:16.225Z,100843.57
2019-01-31T03:08:17.128Z,100847.26
2019-01-31T03:11:19.076Z,100842.23
2019-01-31T03:14:21.796Z,100838.90
2019-01-31T03:17:24.951Z,100836.81
2019-01-31T03:20:17.086Z,100844.66
2019-01-31T03:23:11.756Z,100835.17
2019-01-31T03:26:29.626Z,100834.83
2019-01-31T03:29:47.416Z,100843.05
2019-01-31T03:32:27.134Z,100838.73
2019-01-31T03:35:18.727Z,100834.06
2019-01-31T03:38:39.784Z,100830.22
2019-01-31T03:41:44.863Z,100836.36
2019-01-31T03:45:06.156Z,100830.77
2019-01-31T03:48:19.023Z,100835.06
2019-01-31T03:51:32.690Z,100835.88
2019-01-31T03:54:41.641Z,100843.65
2019-01-31T03:57:46.847Z,100839.38
2019-01-31T04:00:47.267Z,100843.65
2019-01-31T04:03:38.487Z,100848.83
2019-01-31T04:06:29.805Z,100850.19
2019-01-31T04:08:56.900Z,100853.72
2019-01-31T04:11:23.990Z,100847.27
2019-01-31T04:13:51.098Z,100845.09
2019-01-31T04:16:18.173Z,100842.08
2019-01-31T04:18:45.288Z,100837.40
2019-01-31T04:21:12.410Z,100840.78
2019-01-31T04:23:39.669Z,100844.66
2019-01-31T04:26:08.685Z,100847.59
2019-01-31T04:28:37.192Z,100849.75
2019-01-31T04:31:04.601Z,100854.09
2019-01-31T04:33:31.929Z,100853.27
2019-01-31T04:35:59.103Z,100852.08
2019-01-31T04:38:27.244Z,100852.09
2019-01-31T04:40:55.421Z,100856.47
2019-01-31T04:43:22.508Z,100850.44
2019-01-31T04:45:49.600Z,100846.55
2019-01-31T04:48:16.906Z,100843.53
2019-01-31T04:50:44.156Z,100838.77
2019-01-31T04:53:11.449Z,100840.05
2019-01-31T04:55:38.647Z,100845.67
2019-01-31T04:58:05.814Z,100843.95
2019-01-31T05:00:33.137Z,100848.29
2019-01-31T05:03:00.456Z,100847.47
2019-01-31T05:05:27.682Z,100856.48
2019-01-31T05:07:55.070Z,100856.04
2019-01-31T05:10:22.383Z,100849.12
2019-01-31T05:12:49.554Z,100853.89
2019-01-31T05:15:16.647Z,100856.56
2019-01-31T05:17:45.612Z,100862.67
2019-01-31T05:20:17.316Z,100857.06
2019-01-31T05:22:44.612Z,100860.87
2019-01-31T05:25:13.526Z,100860.65
2019-01-31T05:27:40.650Z,100866.16
2019-01-31T05:30:10.364Z,100865.06
2019-01-31T05:32:37.540Z,100871.02
2019-01-31T05:35:05.161Z,100867.82
2019-01-31T05:37:32.259Z,100874.66
2019-01-31T05:39:59.382Z,100876.03
2019-01-31T05:42:26.486Z,100870.17
2019-01-31T05:44:53.774Z,100870.73
2019-01-31T05:47:20.896Z,100872.11
2019-01-31T05:49:47.997Z,100870.73
2019-01-31T05:52:15.111Z,100873.61
2019-01-31T05:54:42.208Z,100871.79
2019-01-31T05:57:09.414Z,100869.14
2019-01-31T05:59:36.525Z,100869.22
2019-01-31T06:02:03.938Z,100876.73
2019-01-31T06:04:31.104Z,100880.27
2019-01-31T06:06:58.434Z,100874.35
2019-01-31T06:09:25.793Z,100875.67
2019-01-31T06:11:53.028Z,100880.51
2019-01-31T06:14:21.881Z,100876.67
2019-01-31T06:16:49.765Z,100880.16
2019-01-31T06:19:17.078Z,100877.22
2019-01-31T06:21:45.474Z,100875.98
2019-01-31T06:24:12.573Z,100875.21
2019-01-31T06:26:39.843Z,100877.87
2019-01-31T06:29:08.853Z,100882.66
2019-01-31T06:31:36.117Z,100877.55
2019-01-31T06:34:04.469Z,100877.20
2019-01-31T06:36:31.715Z,100881.16
2019-01-31T06:38:58.837Z,100883.66
2019-01-31T06:41:27.055Z,100876.61
2019-01-31T06:43:54.292Z,100877.48
2019-01-31T06:46:21.412Z,100876.66
2019-01-31T06:48:49.918Z,100888.80
2019-01-31T06:51:17.112Z,100891.88
2019-01-31T06:53:44.231Z,100894.03
2019-01-31T06:56:11.462Z,100899.30
2019-01-31T06:58:42.660Z,100895.83
2019-01-31T07:01:13.155Z,100895.85
2019-01-31T07:03:42.211Z,100904.92
2019-01-31T07:06:09.668Z,100903.18
2019-01-31T07:08:44.592Z,100907.07
2019-01-31T07:11:11.863Z,100910.88
2019-01-31T07:13:40.260Z,100908.29
2019-01-31T07:16:07.537Z,100912.18
2019-01-31T07:18:34.649Z,100912.63
2019-01-31T07:21:03.710Z,100905.70
2019-01-31T07:23:32.320Z,100915.22
2019-01-31T07:26:01.254Z,100911.38
2019-01-31T07:28:29.744Z,100920.05
2019-01-31T07:30:56.871Z,100913.58
2019-01-31T07:33:25.328Z,100918.81
2019-01-31T07:35:53.517Z,100917.91
2019-01-31T07:38:20.721Z,100920.92
2019-01-31T07:40:47.929Z,100920.11
2019-01-31T07:43:15.165Z,100920.48
2019-01-31T07:45:42.562Z,100915.22
2019-01-31T07:48:09.671Z,100922.14
2019-01-31T07:50:36.825Z,100921.80
2019-01-31T07:53:04.162Z,100920.55
2019-01-31T07:55:31.561Z,100926.19
2019-01-31T07:57:58.868Z,100931.00
2019-01-31T08:00:25.980Z,100933.59
2019-01-31T08:02:53.540Z,100930.08
2019-01-31T08:05:22.083Z,100933.09
2019-01-31T08:07:50.503Z,100939.55
2019-01-31T08:10:23.356Z,100940.88
2019-01-31T08:12:52.428Z,100949.23
2019-01-31T08:15:19.733Z,100947.53
2019-01-31T08:17:47.043Z,100958.39
2019-01-31T08:20:16.866Z,100957.91
2019-01-31T08:22:45.377Z,100956.61
2019-01-31T08:25:16.209Z,100957.53
2019-01-31T08:27:45.304Z,100964.02
2019-01-31T08:30:15.288Z,100961.50
2019-01-31T08:32:43.682Z,100962.01
2019-01-31T08:35:11.881Z,100969.83
2019-01-31T08:37:39.280Z,100969.03
2019-01-31T08:40:09.843Z,100973.42
2019-01-31T08:42:38.726Z,100972.63
2019-01-31T08:45:08.273Z,100968.39
2019-01-31T08:47:37.205Z,100969.28
2019-01-31T08:50:07.686Z,100966.34
2019-01-31T08:52:36.632Z,100966.39
2019-01-31T08:55:04.512Z,100964.61
2019-01-31T08:57:31.924Z,100969.01
2019-01-31T08:59:59.191Z,100975.13
2019-01-31T09:02:26.747Z,100971.60
2019-01-31T09:04:54.121Z,100977.72
2019-01-31T09:07:21.472Z,100975.13
2019-01-31T09:09:48.863Z,100981.20
2019-01-31T09:12:17.928Z,100979.53
2019-01-31T09:14:45.154Z,100988.71
2019-01-31T09:17:14.163Z,100984.89
2019-01-31T09:19:41.632Z,100987.55
2019-01-31T09:22:44.300Z,100987.61
2019-01-31T09:25:55.295Z,100998.46
2019-01-31T09:28:52.369Z,100995.92
2019-01-31T09:32:03.631Z,100999.91
2019-01-31T09:35:21.177Z,100988.94
2019-01-31T09:38:45.454Z,100984.98
2019-01-31T09:41:58.591Z,100991.91
2019-01-31T09:45:12.432Z,100989.95
2019-01-31T09:48:20.027Z,100993.20
2019-01-31T09:51:38.177Z,100988.64
2019-01-31T09:54:50.019Z,100984.44
2019-01-31T09:58:01.199Z,100992.42
2019-01-31T10:01:28.377Z,100994.46
2019-01-31T10:04:30.184Z,100992.05
2019-01-31T10:07:33.335Z,100999.28
2019-01-31T10:10:23.104Z,101002.05
2019-01-31T10:13:34.797Z,100995.98
2019-01-31T10:16:18.855Z,101000.31
2019-01-31T10:19:23.309Z,101005.08
2019-01-31T10:22:39.520Z,100991.97
2019-01-31T10:26:11.628Z,100997.16
2019-01-31T10:29:44.742Z,100988.88
2019-01-31T10:32:39.540Z,100997.92
2019-01-31T10:35:34.702Z,101002.19
2019-01-31T10:38:55.744Z,101002.50
2019-01-31T10:42:03.777Z,101003.37
2019-01-31T10:45:21.728Z,101007.33
2019-01-31T10:48:31.842Z,100998.73
2019-01-31T10:51:42.975Z,100998.77
2019-01-31T10:54:41.689Z,100996.18
2019-01-31T10:57:44.297Z,101000.53
2019-01-31T11:00:44.930Z,100999.72
2019-01-31T11:03:47.812Z,100996.30
2019-01-31T11:06:54.845Z,100995.86
2019-01-31T11:09:57.448Z,100994.19
2019-01-31T11:12:37.238Z,100989.03
2019-01-31T11:15:27.701Z,100991.22
2019-01-31T11:18:15.982Z,100993.42
2019-01-31T11:21:22.195Z,100992.95
2019-01-31T11:24:24.591Z,100991.27
2019-01-31T11:27:51.588Z,100985.64
2019-01-31T11:30:43.199Z,100993.91
2019-01-31T11:33:38.841Z,100988.34
2019-01-31T11:36:42.006Z,100987.97
2019-01-31T11:39:37.630Z,100994.19
2019-01-31T11:42:38.174Z,100992.03
2019-01-31T11:45:42.575Z,100993.81
2019-01-31T11:48:40.295Z,100994.78
2019-01-31T11:51:40.132Z,100991.36
2019-01-31T11:54:36.578Z,100985.82
2019-01-31T11:57:36.599Z,100997.55
2019-01-31T12:00:04.999Z,100992.71
2019-01-31T12:02:32.150Z,100990.55
2019-01-31T12:04:59.243Z,100991.03
2019-01-31T12:07:26.383Z,100995.85
2019-01-31T12:09:53.510Z,101004.10
2019-01-31T12:12:20.607Z,101004.14
2019-01-31T12:14:47.712Z,101005.89
2019-01-31T12:17:14.813Z,101002.94
2019-01-31T12:19:42.116Z,101000.78
2019-01-31T12:22:09.457Z,101005.12
2019-01-31T12:24:36.573Z,101008.16
2019-01-31T12:27:03.782Z,101007.73
2019-01-31T12:29:30.933Z,101003.43
2019-01-31T12:31:58.067Z,101002.98
2019-01-31T12:34:25.183Z,100997.36
2019-01-31T12:36:54.324Z,100995.23
2019-01-31T12:39:21.752Z,101000.92
2019-01-31T12:41:49.144Z,100997.88
2019-01-31T12:44:18.275Z,101000.96
2019-01-31T12:46:45.689Z,100998.80
2019-01-31T12:49:12.945Z,100992.28
2019-01-31T12:51:41.296Z,100997.89
2019-01-31T12:54:08.697Z,100997.93
2019-01-31T12:56:36.137Z,100996.67
2019-01-31T12:59:03.568Z,100994.94
2019-01-31T13:01:32.632Z,100994.94
2019-01-31T13:04:00.004Z,100996.63
2019-01-31T13:06:27.399Z,100996.63
2019-01-31T13:08:54.976Z,100997.93
2019-01-31T13:11:22.377Z,101002.31
2019-01-31T13:13:49.811Z,101003.56
2019-01-31T13:16:29.638Z,101000.49
2019-01-31T13:18:56.970Z,101006.13
2019-01-31T13:21:25.525Z,101005.31
2019-01-31T13:23:52.929Z,101005.75
2019-01-31T13:26:21.921Z,101004.45
2019-01-31T13:28:49.196Z,101006.22
2019-01-31T13:31:16.508Z,101009.27
2019-01-31T13:33:46.627Z,101001.44
2019-01-31T13:36:14.067Z,101008.35
2019-01-31T13:38:41.537Z,101001.84
2019-01-31T13:41:10.051Z,101005.35
2019-01-31T13:43:37.507Z,101003.18
2019-01-31T13:46:05.260Z,101001.84
2019-01-31T13:48:32.548Z,101001.84
2019-01-31T13:50:59.981Z,101000.14
2019-01-31T13:53:27.335Z,101003.14
2019-01-31T13:55:54.899Z,100996.23
2019-01-31T13:58:22.354Z,100996.63
2019-01-31T14:00:49.696Z,100994.89
2019-01-31T14:03:18.280Z,100995.76
2019-01-31T14:05:45.752Z,100990.94
2019-01-31T14:08:13.108Z,100989.63
2019-01-31T14:10:40.267Z,100990.94
2019-01-31T14:13:07.545Z,100987.46
2019-01-31T14:15:36.483Z,100986.16
2019-01-31T14:18:05.191Z,100990.98
2019-01-31T14:20:32.958Z,100988.77
2019-01-31T14:23:00.320Z,100984.86
2019-01-31T14:25:27.883Z,100991.36
2019-01-31T14:27:55.443Z,100989.59
2019-01-31T14:30:31.725Z,100992.62
2019-01-31T14:32:59.056Z,100989.55
2019-01-31T14:35:26.211Z,100991.31
2019-01-31T14:37:54.737Z,100993.92
2019-01-31T14:40:22.467Z,100987.42
2019-01-31T14:42:49.876Z,100989.55
2019-01-31T14:45:17.479Z,100994.75
2019-01-31T14:47:45.785Z,100996.00
2019-01-31T14:50:17.441Z,100994.69
2019-01-31T14:52:44.985Z,101001.20
2019-01-31T14:55:13.716Z,100998.59
2019-01-31T14:57:41.138Z,101002.47
2019-01-31T15:00:12.813Z,100998.59
2019-01-31T15:02:41.639Z,101002.52
2019-01-31T15:05:11.945Z,101006.84
2019-01-31T15:07:40.498Z,101006.42
2019-01-31T15:10:10.926Z,101014.23
2019-01-31T15:12:38.352Z,101011.58
2019-01-31T15:15:06.615Z,101018.13
2019-01-31T15:17:34.841Z,101012.92
2019-01-31T15:20:03.147Z,101018.13
2019-01-31T15:22:32.296Z,101017.22
2019-01-31T15:24:59.608Z,101021.12
2019-01-31T15:27:27.001Z,101020.21
2019-01-31T15:29:54.525Z,101018.04
2019-01-31T15:32:23.598Z,101019.81
2019-01-31T15:34:51.004Z,101015.92
2019-01-31T15:37:19.492Z,101020.73
2019-01-31T15:39:48.119Z,101020.30
2019-01-31T15:42:15.369Z,101019.83
2019-01-31T15:47:13.735Z,101018.19
2019-01-31T15:49:40.840Z,101020.75
2019-01-31T15:52:07.973Z,101022.48
2019-01-31T15:54:42.513Z,101025.52
2019-01-31T15:57:55.404Z,101025.08
2019-01-31T16:00:44.270Z,101031.59
2019-01-31T16:03:19.539Z,101038.53
2019-01-31T16:05:47.046Z,101034.59
2019-01-31T16:08:14.682Z,101032.89
2019-01-31T16:10:42.046Z,101032.08
2019-01-31T16:13:09.239Z,101025.95
2019-01-31T16:15:36.570Z,101024.70
2019-01-31T16:18:05.025Z,101025.13
2019-01-31T16:20:32.171Z,101024.27
2019-01-31T16:22:59.288Z,101028.21
2019-01-31T16:25:26.396Z,101036.42
2019-01-31T16:27:53.503Z,101023.83
2019-01-31T16:30:21.124Z,101025.61
2019-01-31T16:32:48.339Z,101028.23
2019-01-31T16:35:15.480Z,101032.61
2019-01-31T16:37:42.783Z,101025.66
2019-01-31T16:40:11.715Z,101027.84
2019-01-31T16:42:38.951Z,101035.65
2019-01-31T16:45:08.176Z,101027.84
2019-01-31T16:47:35.302Z,101024.37
2019-01-31T16:50:03.497Z,101027.02
2019-01-31T16:52:30.602Z,101023.11
2019-01-31T16:54:57.716Z,101018.38
2019-01-31T16:57:24.858Z,101020.98
2019-01-31T16:59:51.976Z,101020.98
2019-01-31T17:02:19.130Z,101026.20
2019-01-31T17:04:46.278Z,101018.38
2019-01-31T17:07:13.699Z,101021.85
2019-01-31T17:09:40.797Z,101022.30
2019-01-31T17:12:07.911Z,101024.06
2019-01-31T17:14:35.031Z,101027.94
2019-01-31T17:17:02.534Z,101028.81
2019-01-31T17:19:29.645Z,101041.01
2019-01-31T17:21:56.835Z,101031.89
2019-01-31T17:24:23.933Z,101031.92
2019-01-31T17:26:51.351Z,101028.89
2019-01-31T17:29:18.766Z,101034.98
2019-01-31T17:31:47.679Z,101034.15
2019-01-31T17:34:15.827Z,101032.41
2019-01-31T17:36:45.962Z,101037.19
2019-01-31T17:39:13.073Z,101035.02
2019-01-31T17:41:41.506Z,101037.67
2019-01-31T17:44:09.036Z,101040.71
2019-01-31T17:46:36.399Z,101043.33
2019-01-31T17:49:05.187Z,101039.41
2019-01-31T17:51:32.893Z,101045.93
2019-01-31T17:54:01.648Z,101047.23
2019-01-31T17:56:29.321Z,101042.02
2019-01-31T17:58:58.491Z,101035.06
2019-01-31T18:01:25.602Z,101034.19
2019-01-31T18:03:52.768Z,101034.98
2019-01-31T18:06:21.801Z,101037.09
2019-01-31T18:08:51.657Z,101033.14
2019-01-31T18:11:18.836Z,101037.01
2019-01-31T18:13:46.084Z,101039.16
2019-01-31T18:16:34.583Z,101040.42
2019-01-31T18:19:36.519Z,101038.20
2019-01-31T18:22:04.141Z,101036.42
2019-01-31T18:24:31.344Z,101033.77
2019-01-31T18:26:58.800Z,101038.11
2019-01-31T18:29:27.311Z,101044.19
2019-01-31T18:31:54.732Z,101042.39
2019-01-31T18:34:22.201Z,101046.68
2019-01-31T18:36:49.681Z,101044.41
2019-01-31T18:39:16.820Z,101042.14
2019-01-31T18:41:45.813Z,101037.69
2019-01-31T18:44:13.138Z,101036.76
2019-01-31T18:46:40.517Z,101045.39
2019-01-31T18:49:07.844Z,101049.67
2019-01-31T18:51:35.163Z,101047.39
2019-01-31T18:54:03.711Z,101052.97
2019-01-31T18:56:31.330Z,101052.03
2019-01-31T18:58:58.614Z,101045.48
2019-01-31T19:01:28.998Z,101048.50
2019-01-31T19:03:56.639Z,101045.47
2019-01-31T19:06:27.020Z,101043.25
2019-01-31T19:08:54.781Z,101059.30
2019-01-31T19:11:22.177Z,101063.19
2019-01-31T19:13:51.298Z,101063.63
2019-01-31T19:16:18.717Z,101061.08
2019-01-31T19:18:47.199Z,101057.19
2019-01-31T19:21:14.294Z,101058.92
2019-01-31T19:23:41.425Z,101068.45
2019-01-31T19:26:08.834Z,101072.30
2019-01-31T19:28:36.215Z,101069.25
2019-01-31T19:31:04.674Z,101062.27
2019-01-31T19:33:31.927Z,101071.86
2019-01-31T19:35:59.509Z,101062.32
2019-01-31T19:38:26.755Z,101067.97
2019-01-31T19:40:54.292Z,101066.28
2019-01-31T19:43:21.684Z,101065.84
2019-01-31T19:45:49.956Z,101069.33
2019-01-31T19:48:17.519Z,101070.64
2019-01-31T19:50:44.729Z,101070.20
2019-01-31T19:53:12.269Z,101064.61
2019-01-31T19:55:39.587Z,101072.47
2019-01-31T19:58:07.050Z,101072.91
2019-01-31T20:00:34.621Z,101063.80
2019-01-31T20:03:04.139Z,101070.30
2019-01-31T20:05:31.443Z,101070.30
2019-01-31T20:08:00.664Z,101073.39
2019-01-31T20:10:29.855Z,101080.84
2019-01-31T20:12:57.400Z,101079.98
2019-01-31T20:15:25.252Z,101076.56
2019-01-31T20:17:52.727Z,101080.52
2019-01-31T20:20:23.237Z,101078.34
2019-01-31T20:22:52.712Z,101073.58
2019-01-31T20:25:21.338Z,101069.20
2019-01-31T20:27:48.703Z,101070.05
2019-01-31T20:30:18.393Z,101072.22
2019-01-31T20:32:45.859Z,101071.30
2019-01-31T20:35:15.301Z,101074.37
2019-01-31T20:37:42.852Z,101073.08
2019-01-31T20:40:12.428Z,101078.68
2019-01-31T20:42:39.845Z,101074.33
2019-01-31T20:45:09.425Z,101079.97
2019-01-31T20:47:38.008Z,101086.10
2019-01-31T20:50:08.409Z,101087.89
2019-01-31T20:52:35.616Z,101091.37
2019-01-31T20:55:03.821Z,101088.45
2019-01-31T20:57:31.233Z,101083.67
2019-01-31T20:59:58.423Z,101086.34
2019-01-31T21:02:25.543Z,101085.09
2019-01-31T21:04:54.010Z,101084.67
2019-01-31T21:07:21.435Z,101082.54
2019-01-31T21:09:48.655Z,101079.94
2019-01-31T21:12:16.074Z,101087.80
2019-01-31T21:14:45.211Z,101085.69
2019-01-31T21:17:12.526Z,101082.66
2019-01-31T21:19:39.806Z,101081.84
2019-01-31T21:22:12.435Z,101077.94
2019-01-31T21:24:40.110Z,101074.45
2019-01-31T21:27:11.132Z,101089.70
2019-01-31T21:29:41.321Z,101087.53
2019-01-31T21:32:13.412Z,101092.80
2019-01-31T21:34:40.626Z,101100.66
2019-01-31T21:37:07.818Z,101099.84
2019-01-31T21:39:34.937Z,101106.80
2019-01-31T21:42:02.128Z,101104.25
2019-01-31T21:44:32.251Z,101105.98
2019-01-31T21:47:03.183Z,101107.29
2019-01-31T21:49:31.667Z,101105.59
2019-01-31T21:51:58.919Z,101106.47
2019-01-31T21:54:26.297Z,101103.42
2019-01-31T21:56:55.357Z,101118.67
2019-01-31T21:59:23.766Z,101113.89
2019-01-31T22:01:53.348Z,101109.98
2019-01-31T22:04:24.612Z,101110.86
2019-01-31T22:06:51.850Z,101113.89
2019-01-31T22:09:19.115Z,101110.47
2019-01-31T22:11:49.477Z,101103.95
2019-01-31T22:14:18.467Z,101106.96
2019-01-31T22:16:46.669Z,101099.62
2019-01-31T22:19:13.929Z,101100.50
2019-01-31T22:21:45.936Z,101100.93
2019-01-31T22:24:13.131Z,101103.97
2019-01-31T22:26:43.226Z,101104.45
2019-01-31T22:29:13.342Z,101103.97
2019-01-31T22:31:40.790Z,101097.06
2019-01-31T22:34:10.039Z,101100.50
2019-01-31T22:36:37.248Z,101100.59
2019-01-31T22:39:09.547Z,101093.20
2019-01-31T22:41:36.649Z,101089.73
2019-01-31T22:44:04.007Z,101094.02
2019-01-31T22:46:31.111Z,101082.73
2019-01-31T22:49:12.973Z,101086.64
2019-01-31T22:51:45.804Z,101088.77
2019-01-31T22:54:15.698Z,101087.91
2019-01-31T22:56:43.909Z,101082.69
2019-01-31T22:59:11.002Z,101089.62
2019-01-31T23:01:50.089Z,101088.33
2019-01-31T23:04:27.934Z,101089.20
2019-01-31T23:07:00.474Z,101090.03
2019-01-31T23:09:30.643Z,101085.25
2019-01-31T23:12:13.612Z,101085.29
2019-01-31T23:14:40.841Z,101083.55
2019-01-31T23:17:10.376Z,101089.20
2019-01-31T23:19:37.641Z,101077.48
2019-01-31T23:22:08.136Z,101076.62
2019-01-31T23:24:40.997Z,101080.56
2019-01-31T23:27:08.180Z,101083.61
2019-01-31T23:29:35.479Z,101081.88
2019-01-31T23:32:04.541Z,101087.13
2019-01-31T23:34:36.303Z,101082.34
2019-01-31T23:37:10.568Z,101074.97
2019-01-31T23:39:42.261Z,101070.63
2019-01-31T23:42:10.419Z,101069.76
2019-01-31T23:44:42.059Z,101065.81
2019-01-31T23:47:09.157Z,101061.03
2019-01-31T23:49:36.304Z,101053.22
2019-01-31T23:52:03.575Z,101057.08
2019-01-31T23:54:30.786Z,101060.97
2019-01-31T23:56:57.895Z,101066.56
2019-01-31T23:59:25.020Z,101072.59
